createdAt,value
2018-12-20T00:00:45.284Z,30.17
2018-12-20T00:03:14.218Z,30.23
2018-12-20T00:05:42.936Z,31.13
2018-12-20T00:08:11.691Z,31.23
2018-12-20T00:10:40.165Z,31.77
2018-12-20T00:13:09.075Z,32.57
2018-12-20T00:15:38.484Z,30.97
2018-12-20T00:18:07.425Z,33.07
2018-12-20T00:20:35.956Z,31.07
2018-12-20T00:23:05.216Z,30.60
2018-12-20T00:25:33.665Z,29.60
2018-12-20T00:28:02.560Z,32.80
2018-12-20T00:30:31.121Z,30.00
2018-12-20T00:32:59.893Z,32.47
2018-12-20T00:35:28.274Z,33.20
2018-12-20T00:37:56.851Z,30.17
2018-12-20T00:40:25.308Z,28.77
2018-12-20T00:42:53.795Z,30.00
2018-12-20T00:45:22.475Z,28.00
2018-12-20T00:47:50.927Z,33.43
2018-12-20T00:50:19.426Z,30.87
2018-12-20T00:52:47.911Z,31.07
2018-12-20T00:55:16.573Z,31.52
2018-12-20T00:57:45.125Z,31.37
2018-12-20T01:00:14.015Z,33.83
2018-12-20T01:02:42.467Z,31.20
2018-12-20T01:05:11.571Z,31.30
2018-12-20T01:07:40.523Z,33.03
2018-12-20T01:10:09.505Z,31.77
2018-12-20T01:12:37.927Z,31.70
2018-12-20T01:15:06.612Z,31.90
2018-12-20T01:17:38.860Z,34.27
2018-12-20T01:20:09.451Z,31.80
2018-12-20T01:22:38.479Z,33.70
2018-12-20T01:25:07.455Z,35.43
2018-12-20T01:27:36.315Z,34.70
2018-12-20T01:30:06.286Z,32.33
2018-12-20T01:32:34.722Z,32.67
2018-12-20T01:35:03.239Z,32.83
2018-12-20T01:37:31.711Z,32.47
2018-12-20T01:40:00.366Z,32.60
2018-12-20T01:42:28.935Z,35.00
2018-12-20T01:44:57.313Z,31.40
2018-12-20T01:47:25.782Z,33.03
2018-12-20T01:49:54.804Z,32.27
2018-12-20T01:52:23.154Z,31.70
2018-12-20T01:54:51.671Z,22.20
2018-12-20T01:57:20.445Z,30.43
2018-12-20T01:59:48.910Z,29.70
2018-12-20T02:02:17.622Z,30.97
2018-12-20T02:04:46.219Z,29.43
2018-12-20T02:07:15.004Z,29.63
2018-12-20T02:09:43.443Z,32.37
2018-12-20T02:12:12.067Z,24.67
2018-12-20T02:14:40.605Z,28.80
2018-12-20T02:17:09.341Z,31.40
2018-12-20T02:19:37.778Z,30.67
2018-12-20T02:22:06.349Z,31.23
2018-12-20T02:24:34.993Z,29.87
2018-12-20T02:27:03.334Z,30.00
2018-12-20T02:29:31.851Z,21.77
2018-12-20T02:32:01.079Z,31.23
2018-12-20T02:34:29.842Z,29.60
2018-12-20T02:36:58.355Z,28.77
2018-12-20T02:39:26.980Z,31.57
2018-12-20T02:41:55.794Z,33.10
2018-12-20T02:47:55.557Z,29.03
2018-12-20T02:50:24.112Z,27.13
2018-12-20T02:52:52.773Z,28.57
2018-12-20T02:55:21.474Z,28.80
2018-12-20T02:57:51.114Z,28.20
2018-12-20T03:00:20.128Z,26.10
2018-12-20T03:02:48.738Z,28.50
2018-12-20T03:05:17.255Z,29.63
2018-12-20T03:07:45.999Z,28.70
2018-12-20T03:10:14.792Z,25.00
2018-12-20T03:12:43.167Z,26.60
2018-12-20T03:15:19.716Z,22.87
2018-12-20T03:17:40.222Z,26.30
2018-12-20T03:20:09.212Z,27.63
2018-12-20T03:22:38.146Z,26.07
2018-12-20T03:25:06.798Z,27.60
2018-12-20T03:27:35.374Z,22.83
2018-12-20T03:30:04.257Z,26.50
2018-12-20T03:32:33.039Z,18.10
2018-12-20T03:35:01.303Z,25.93
2018-12-20T03:37:29.790Z,25.33
2018-12-20T03:39:58.494Z,22.13
2018-12-20T03:42:26.911Z,26.90
2018-12-20T03:44:55.494Z,24.13
2018-12-20T03:47:24.027Z,26.77
2018-12-20T03:49:52.898Z,24.30
2018-12-20T03:52:21.507Z,22.57
2018-12-20T03:54:50.110Z,23.67
2018-12-20T03:57:18.484Z,25.37
2018-12-20T03:59:46.994Z,23.80
2018-12-20T04:02:15.596Z,22.87
2018-12-20T04:04:44.378Z,25.53
2018-12-20T04:07:12.821Z,23.27
2018-12-20T04:09:41.315Z,25.40
2018-12-20T04:12:09.778Z,20.97
2018-12-20T04:14:38.541Z,23.83
2018-12-20T04:17:07.013Z,24.87
2018-12-20T04:19:35.487Z,24.43
2018-12-20T04:22:05.015Z,19.33
2018-12-20T04:24:34.043Z,24.03
2018-12-20T04:27:02.479Z,25.83
2018-12-20T04:29:30.943Z,23.67
2018-12-20T04:31:59.680Z,24.13
2018-12-20T04:34:28.646Z,24.43
2018-12-20T04:36:57.197Z,26.07
2018-12-20T04:39:25.837Z,22.37
2018-12-20T04:41:55.038Z,25.27
2018-12-20T04:44:25.350Z,25.27
2018-12-20T04:46:54.162Z,24.53
2018-12-20T04:49:22.742Z,20.83
2018-12-20T04:51:51.435Z,21.37
2018-12-20T04:54:19.826Z,16.93
2018-12-20T04:56:48.568Z,24.20
2018-12-20T04:59:17.309Z,26.60
2018-12-20T05:01:45.895Z,26.30
2018-12-20T05:04:14.366Z,16.80
2018-12-20T05:06:43.853Z,28.33
2018-12-20T05:09:12.707Z,26.50
2018-12-20T05:11:42.502Z,25.47
2018-12-20T05:14:10.931Z,22.53
2018-12-20T05:16:39.407Z,23.37
2018-12-20T05:19:08.639Z,25.33
2018-12-20T05:21:37.382Z,25.47
2018-12-20T05:24:05.869Z,28.00
2018-12-20T05:26:35.176Z,26.43
2018-12-20T05:29:03.693Z,18.57
2018-12-20T05:31:32.982Z,25.30
2018-12-20T05:34:01.631Z,25.80
2018-12-20T05:36:30.155Z,23.27
2018-12-20T05:38:58.632Z,25.10
2018-12-20T05:41:27.592Z,18.13
2018-12-20T05:43:56.281Z,24.93
2018-12-20T05:46:24.632Z,26.27
2018-12-20T05:48:53.213Z,22.97
2018-12-20T05:51:22.619Z,24.03
2018-12-20T05:53:51.632Z,25.03
2018-12-20T05:56:19.965Z,24.50
2018-12-20T05:58:48.602Z,22.93
2018-12-20T06:01:16.997Z,21.67
2018-12-20T06:03:45.846Z,24.13
2018-12-20T06:06:14.488Z,25.93
2018-12-20T06:08:43.161Z,16.93
2018-12-20T06:11:11.701Z,17.80
2018-12-20T06:13:40.587Z,25.20
2018-12-20T06:16:13.061Z,26.20
2018-12-20T06:18:38.001Z,24.70
2018-12-20T06:21:06.576Z,25.67
2018-12-20T06:23:35.430Z,25.50
2018-12-20T06:26:05.485Z,23.03
2018-12-20T06:28:34.101Z,23.60
2018-12-20T06:31:02.929Z,22.60
2018-12-20T06:33:31.605Z,25.37
2018-12-20T06:36:00.206Z,23.07
2018-12-20T06:38:28.753Z,25.43
2018-12-20T06:40:57.314Z,22.57
2018-12-20T06:43:25.881Z,19.67
2018-12-20T06:45:54.978Z,22.57
2018-12-20T06:48:23.753Z,24.20
2018-12-20T06:50:52.498Z,24.23
2018-12-20T06:53:21.037Z,24.50
2018-12-20T06:55:49.814Z,27.53
2018-12-20T06:58:18.595Z,25.40
2018-12-20T07:00:47.075Z,23.67
2018-12-20T07:03:15.586Z,22.23
2018-12-20T07:05:44.069Z,24.97
2018-12-20T07:08:12.573Z,22.77
2018-12-20T07:10:41.074Z,26.50
2018-12-20T07:13:09.598Z,24.63
2018-12-20T07:15:38.369Z,25.90
2018-12-20T07:18:06.825Z,23.87
2018-12-20T07:20:35.277Z,25.87
2018-12-20T07:23:04.845Z,23.63
2018-12-20T07:25:33.710Z,24.10
2018-12-20T07:28:03.322Z,19.13
2018-12-20T07:30:32.165Z,23.30
2018-12-20T07:33:00.881Z,26.63
2018-12-20T07:35:29.721Z,23.63
2018-12-20T07:37:58.585Z,26.20
2018-12-20T07:40:27.491Z,24.57
2018-12-20T07:42:56.269Z,24.70
2018-12-20T07:45:25.125Z,23.83
2018-12-20T07:47:53.912Z,24.23
2018-12-20T07:50:22.722Z,24.17
2018-12-20T07:52:51.561Z,21.10
2018-12-20T07:55:20.423Z,22.17
2018-12-20T07:57:49.249Z,25.50
2018-12-20T08:00:18.413Z,22.50
2018-12-20T08:02:47.228Z,21.17
2018-12-20T08:05:16.308Z,23.70
2018-12-20T08:07:45.225Z,22.77
2018-12-20T08:10:14.885Z,18.70
2018-12-20T08:12:42.994Z,23.03
2018-12-20T08:15:12.001Z,22.70
2018-12-20T08:17:40.954Z,21.63
2018-12-20T08:20:09.792Z,15.70
2018-12-20T08:22:38.689Z,23.80
2018-12-20T08:25:07.716Z,25.67
2018-12-20T08:27:36.734Z,24.37
2018-12-20T08:30:06.377Z,24.50
2018-12-20T08:32:35.473Z,23.37
2018-12-20T08:35:05.613Z,22.40
2018-12-20T08:37:34.481Z,21.73
2018-12-20T08:40:03.402Z,22.63
2018-12-20T08:42:32.573Z,23.33
2018-12-20T08:45:01.522Z,24.33
2018-12-20T08:47:30.757Z,22.17
2018-12-20T08:49:59.633Z,22.33
2018-12-20T08:52:28.513Z,23.50
2018-12-20T08:54:57.545Z,22.60
2018-12-20T08:57:26.536Z,23.57
2018-12-20T08:59:55.413Z,21.77
2018-12-20T09:02:24.268Z,26.10
2018-12-20T09:04:53.240Z,23.03
2018-12-20T09:07:22.069Z,23.50
2018-12-20T09:09:50.976Z,23.53
2018-12-20T09:12:19.897Z,22.43
2018-12-20T09:14:48.787Z,21.87
2018-12-20T09:17:17.999Z,21.60
2018-12-20T09:19:46.948Z,25.20
2018-12-20T09:22:16.077Z,23.63
2018-12-20T09:24:45.434Z,22.20
2018-12-20T09:27:14.644Z,21.10
2018-12-20T09:29:43.557Z,24.10
2018-12-20T09:32:12.520Z,24.07
2018-12-20T09:34:41.796Z,22.67
2018-12-20T09:37:10.972Z,22.50
2018-12-20T09:39:40.113Z,22.43
2018-12-20T09:42:08.996Z,22.53
2018-12-20T09:44:37.885Z,20.80
2018-12-20T09:47:12.262Z,22.57
2018-12-20T09:49:40.930Z,21.07
2018-12-20T09:52:10.604Z,23.70
2018-12-20T09:54:39.601Z,22.80
2018-12-20T09:57:08.445Z,21.30
2018-12-20T09:59:37.299Z,22.73
2018-12-20T10:02:06.194Z,21.40
2018-12-20T10:04:35.065Z,22.97
2018-12-20T10:07:03.965Z,20.20
2018-12-20T10:09:32.857Z,21.33
2018-12-20T10:12:01.702Z,18.37
2018-12-20T10:14:30.973Z,21.70
2018-12-20T10:17:00.164Z,21.63
2018-12-20T10:19:29.052Z,24.13
2018-12-20T10:21:57.956Z,23.37
2018-12-20T10:24:26.897Z,22.83
2018-12-20T10:26:56.629Z,19.57
2018-12-20T10:29:25.538Z,25.53
2018-12-20T10:31:54.420Z,19.37
2018-12-20T10:34:23.637Z,23.33
2018-12-20T10:36:52.575Z,25.57
2018-12-20T10:39:22.000Z,24.47
2018-12-20T10:41:50.935Z,23.77
2018-12-20T10:44:20.212Z,23.23
2018-12-20T10:46:49.092Z,24.50
2018-12-20T10:49:18.635Z,24.00
2018-12-20T10:51:47.564Z,21.43
2018-12-20T10:54:16.532Z,21.57
2018-12-20T10:56:45.630Z,18.50
2018-12-20T10:59:15.220Z,22.40
2018-12-20T11:01:47.964Z,19.33
2018-12-20T11:04:22.580Z,20.07
2018-12-20T11:06:56.816Z,24.60
2018-12-20T11:09:31.009Z,21.23
2018-12-20T11:12:05.263Z,23.37
2018-12-20T11:14:34.182Z,20.67
2018-12-20T11:17:03.172Z,21.47
2018-12-20T11:19:32.160Z,23.23
2018-12-20T11:22:01.104Z,21.40
2018-12-20T11:24:30.535Z,23.27
2018-12-20T11:26:59.522Z,18.80
2018-12-20T11:29:28.384Z,21.10
2018-12-20T11:31:57.315Z,22.97
2018-12-20T11:34:26.211Z,23.93
2018-12-20T11:36:54.996Z,21.83
2018-12-20T11:39:23.841Z,24.60
2018-12-20T11:41:52.835Z,23.03
2018-12-20T11:44:21.772Z,23.50
2018-12-20T11:46:50.952Z,22.07
2018-12-20T11:49:19.847Z,24.17
2018-12-20T11:51:48.755Z,22.33
2018-12-20T11:54:17.641Z,21.03
2018-12-20T11:56:46.719Z,22.03
2018-12-20T11:59:15.563Z,22.27
2018-12-20T12:01:44.382Z,23.20
2018-12-20T12:04:13.216Z,22.70
2018-12-20T12:06:42.108Z,21.53
2018-12-20T12:09:10.952Z,23.60
2018-12-20T12:11:40.451Z,21.03
2018-12-20T12:14:09.451Z,23.27
2018-12-20T12:16:38.384Z,23.63
2018-12-20T12:19:07.255Z,24.43
2018-12-20T12:21:36.148Z,24.13
2018-12-20T12:24:05.251Z,24.45
2018-12-20T12:26:34.159Z,22.07
2018-12-20T12:29:03.779Z,23.93
2018-12-20T12:31:33.279Z,25.40
2018-12-20T12:34:02.720Z,24.37
2018-12-20T12:36:31.931Z,22.97
2018-12-20T12:39:00.815Z,20.43
2018-12-20T12:41:29.739Z,21.87
2018-12-20T12:43:58.607Z,22.57
2018-12-20T12:46:27.559Z,22.73
2018-12-20T12:48:56.403Z,24.87
2018-12-20T12:51:25.271Z,25.80
2018-12-20T12:53:54.146Z,28.07
2018-12-20T12:56:23.019Z,25.83
2018-12-20T12:58:51.879Z,25.63
2018-12-20T13:01:20.798Z,26.20
2018-12-20T13:03:49.710Z,26.37
2018-12-20T13:06:18.878Z,28.07
2018-12-20T13:08:47.998Z,28.20
2018-12-20T13:11:16.895Z,29.00
2018-12-20T13:13:45.798Z,30.10
2018-12-20T13:16:14.642Z,29.85
2018-12-20T13:18:43.574Z,30.07
2018-12-20T13:21:13.058Z,31.03
2018-12-20T13:23:41.959Z,27.70
2018-12-20T13:26:11.143Z,29.27
2018-12-20T13:28:39.978Z,27.23
2018-12-20T13:31:08.831Z,29.17
2018-12-20T13:33:37.710Z,31.03
2018-12-20T13:36:06.642Z,29.93
2018-12-20T13:38:35.854Z,28.00
2018-12-20T13:41:05.208Z,28.83
2018-12-20T13:43:34.122Z,28.27
2018-12-20T13:46:03.015Z,31.50
2018-12-20T13:48:32.366Z,30.17
2018-12-20T13:51:01.710Z,30.10
2018-12-20T13:53:30.906Z,31.67
2018-12-20T13:55:59.842Z,31.90
2018-12-20T13:58:28.784Z,31.47
2018-12-20T14:00:57.922Z,33.80
2018-12-20T14:03:27.698Z,32.80
2018-12-20T14:05:56.898Z,31.87
2018-12-20T14:08:25.786Z,30.63
2018-12-20T14:10:54.638Z,31.13
2018-12-20T14:13:23.582Z,29.50
2018-12-20T14:15:53.118Z,32.43
2018-12-20T14:18:30.513Z,29.70
2018-12-20T14:20:51.487Z,30.60
2018-12-20T14:32:26.738Z,31.20
2018-12-20T14:34:55.762Z,31.77
2018-12-20T14:37:25.078Z,31.83
2018-12-20T14:39:53.970Z,30.97
2018-12-20T14:42:22.970Z,33.90
2018-12-20T14:44:52.030Z,30.67
2018-12-20T14:47:21.097Z,31.00
2018-12-20T14:50:08.593Z,31.17
2018-12-20T14:52:38.113Z,34.03
2018-12-20T14:55:08.563Z,33.17
2018-12-20T14:57:38.441Z,31.80
2018-12-20T15:00:09.590Z,32.90
2018-12-20T15:02:39.593Z,30.83
2018-12-20T15:05:10.223Z,33.10
2018-12-20T15:07:39.081Z,33.73
2018-12-20T15:10:09.779Z,31.40
2018-12-20T15:12:38.745Z,28.53
2018-12-20T15:15:10.201Z,31.57
2018-12-20T15:17:39.193Z,31.37
2018-12-20T15:20:09.340Z,31.70
2018-12-20T15:22:40.040Z,31.73
2018-12-20T15:25:09.229Z,32.13
2018-12-20T15:27:39.238Z,33.03
2018-12-20T15:30:25.088Z,32.05
2018-12-20T15:32:54.041Z,32.00
2018-12-20T15:35:24.180Z,31.33
2018-12-20T15:37:53.270Z,31.83
2018-12-20T15:40:22.266Z,32.80
2018-12-20T15:42:58.830Z,33.70
2018-12-20T15:45:27.824Z,33.50
2018-12-20T15:47:56.752Z,32.37
2018-12-20T15:53:46.248Z,33.67
2018-12-20T15:56:15.604Z,32.27
2018-12-20T15:58:44.732Z,32.53
2018-12-20T16:01:13.823Z,30.27
2018-12-20T16:03:44.116Z,31.67
2018-12-20T16:06:13.148Z,33.10
2018-12-20T16:08:43.722Z,30.37
2018-12-20T16:11:13.047Z,30.20
2018-12-20T16:13:42.043Z,31.63
2018-12-20T16:16:11.063Z,32.27
2018-12-20T16:18:51.187Z,28.40
2018-12-20T16:41:21.378Z,25.63
2018-12-20T16:43:51.235Z,28.53
2018-12-20T16:46:32.751Z,28.10
2018-12-20T16:49:01.826Z,30.23
2018-12-20T16:51:31.127Z,30.00
2018-12-20T16:54:00.742Z,30.93
2018-12-20T16:56:29.630Z,29.03
2018-12-20T16:58:58.543Z,27.87
2018-12-20T17:01:27.696Z,30.00
2018-12-20T17:04:00.911Z,26.90
2018-12-20T17:09:23.683Z,29.57
2018-12-20T17:12:01.994Z,27.90
2018-12-20T17:14:30.991Z,28.37
2018-12-20T17:17:00.007Z,24.77
2018-12-20T17:19:29.918Z,29.50
2018-12-20T17:21:58.811Z,29.57
2018-12-20T17:24:27.743Z,30.57
2018-12-20T18:54:28.490Z,27.10
2018-12-20T18:57:36.678Z,28.87
2018-12-20T19:00:52.055Z,32.85
2018-12-20T19:03:50.890Z,30.39
2018-12-20T19:06:47.351Z,32.13
2018-12-20T19:15:57.443Z,29.87
2018-12-20T19:25:33.481Z,35.77
2018-12-20T20:33:22.422Z,26.03
2018-12-20T20:35:51.822Z,29.03
2018-12-20T20:38:32.060Z,29.25
2018-12-20T20:41:04.134Z,27.93
2018-12-20T20:43:33.186Z,30.00
2018-12-20T20:46:02.066Z,30.03
2018-12-20T20:48:33.834Z,32.50
2018-12-20T20:51:02.882Z,30.93
2018-12-20T20:53:31.866Z,30.03
2018-12-20T20:56:02.990Z,32.00
2018-12-20T21:05:06.826Z,30.80
2018-12-20T21:10:09.824Z,27.60
2018-12-20T21:19:23.110Z,26.43
2018-12-20T21:26:39.810Z,32.33
2018-12-20T21:29:08.641Z,30.67
2018-12-20T21:34:46.193Z,32.30
2018-12-20T21:37:22.355Z,34.50
2018-12-20T21:39:53.415Z,32.47
2018-12-20T21:42:22.107Z,34.00
2018-12-20T21:44:55.587Z,35.03
2018-12-20T21:47:29.711Z,34.93
2018-12-20T22:07:03.939Z,30.23
2018-12-20T22:12:35.059Z,32.70
2018-12-20T22:15:26.947Z,34.57
2018-12-20T22:21:08.406Z,32.47
2018-12-20T22:23:41.019Z,35.40
2018-12-20T22:26:33.710Z,32.35
2018-12-20T22:29:22.354Z,33.30
2018-12-20T22:38:21.606Z,31.87
2018-12-20T22:41:05.267Z,32.77
2018-12-20T22:43:59.718Z,34.03
2018-12-20T22:46:31.570Z,33.13
2018-12-20T22:49:13.335Z,32.63
2018-12-20T22:52:02.458Z,32.50
2018-12-20T22:54:46.143Z,34.33
2018-12-20T22:57:32.026Z,34.30
2018-12-20T23:00:11.698Z,34.17
2018-12-20T23:02:57.578Z,34.87
2018-12-20T23:05:40.637Z,34.50
2018-12-20T23:08:21.734Z,32.67
2018-12-20T23:11:30.883Z,32.53
2018-12-20T23:14:06.077Z,31.83
2018-12-20T23:16:34.869Z,35.13
2018-12-20T23:19:03.471Z,33.43
2018-12-20T23:21:32.038Z,30.23
2018-12-20T23:24:00.682Z,34.47
2018-12-20T23:26:29.282Z,33.30
2018-12-20T23:28:57.817Z,32.33
2018-12-20T23:31:26.522Z,32.03
2018-12-20T23:33:55.068Z,33.70
2018-12-20T23:36:24.146Z,31.50
2018-12-20T23:38:52.801Z,31.10
2018-12-20T23:41:21.390Z,34.43
2018-12-20T23:43:50.032Z,32.53
2018-12-20T23:46:18.713Z,34.57
2018-12-20T23:48:47.305Z,32.73
2018-12-20T23:51:15.906Z,34.33
2018-12-20T23:53:44.593Z,34.67
2018-12-20T23:56:13.345Z,33.20
2018-12-20T23:58:41.970Z,35.03
